createdAt,value
2019-02-22T00:02:14.085Z,50.18
2019-02-22T00:04:44.613Z,50.76
2019-02-22T00:07:15.540Z,50.76
2019-02-22T00:09:49.441Z,51.45
2019-02-22T00:12:18.327Z,52.10
2019-02-22T00:14:48.977Z,51.92
2019-02-22T00:17:19.040Z,52.37
2019-02-22T00:19:54.550Z,52.19
2019-02-22T00:22:24.920Z,52.17
2019-02-22T00:24:55.779Z,52.52
2019-02-22T00:27:26.411Z,52.67
2019-02-22T00:29:57.168Z,53.18
2019-02-22T00:32:27.715Z,53.27
2019-02-22T00:34:58.493Z,53.47
2019-02-22T00:37:29.365Z,52.96
2019-02-22T00:39:59.696Z,52.63
2019-02-22T00:42:30.321Z,52.69
2019-02-22T00:45:00.441Z,52.31
2019-02-22T00:47:31.028Z,52.25
2019-02-22T00:50:01.090Z,51.45
2019-02-22T00:52:33.456Z,51.51
2019-02-22T00:55:05.099Z,51.77
2019-02-22T00:57:35.475Z,52.13
2019-02-22T01:00:08.494Z,51.56
2019-02-22T01:02:38.807Z,51.51
2019-02-22T01:05:09.579Z,51.88
2019-02-22T01:07:40.229Z,52.20
2019-02-22T01:10:11.086Z,52.21
2019-02-22T01:12:41.839Z,52.06
2019-02-22T01:15:12.575Z,52.17
2019-02-22T01:17:43.141Z,52.52
2019-02-22T01:20:14.005Z,52.67
2019-02-22T01:22:44.752Z,53.10
2019-02-22T01:25:15.490Z,53.12
2019-02-22T01:27:46.039Z,53.34
2019-02-22T01:30:16.910Z,53.36
2019-02-22T01:32:47.665Z,53.56
2019-02-22T01:35:18.420Z,53.58
2019-02-22T01:37:49.070Z,53.81
2019-02-22T01:40:19.806Z,54.06
2019-02-22T01:42:50.583Z,54.18
2019-02-22T01:45:21.335Z,54.36
2019-02-22T01:47:51.981Z,54.45
2019-02-22T01:50:23.558Z,54.29
2019-02-22T01:52:54.821Z,53.59
2019-02-22T01:55:25.660Z,53.26
2019-02-22T01:57:56.328Z,52.77
2019-02-22T02:00:27.184Z,52.45
2019-02-22T02:02:57.940Z,52.65
2019-02-22T02:05:28.692Z,52.85
2019-02-22T02:07:59.344Z,51.66
2019-02-22T02:10:30.078Z,51.06
2019-02-22T02:13:00.955Z,50.15
2019-02-22T02:15:31.710Z,49.57
2019-02-22T02:18:02.373Z,48.74
2019-02-22T02:20:33.216Z,47.79
2019-02-22T02:23:03.969Z,48.64
2019-02-22T02:25:34.722Z,47.07
2019-02-22T02:28:05.585Z,45.35
2019-02-22T02:30:36.435Z,45.24
2019-02-22T02:33:07.070Z,44.90
2019-02-22T02:35:37.738Z,45.37
2019-02-22T02:38:08.603Z,44.84
2019-02-22T02:40:39.357Z,44.69
2019-02-22T02:43:10.102Z,44.89
2019-02-22T02:45:40.755Z,45.24
2019-02-22T02:48:11.507Z,45.70
2019-02-22T02:50:42.244Z,45.54
2019-02-22T02:53:13.937Z,45.33
2019-02-22T02:55:44.892Z,45.16
2019-02-22T02:58:15.547Z,45.80
2019-02-22T03:00:46.402Z,44.62
2019-02-22T03:03:17.258Z,45.19
2019-02-22T03:05:52.494Z,43.91
2019-02-22T03:08:24.787Z,43.91
2019-02-22T03:10:55.638Z,44.23
2019-02-22T03:13:26.565Z,44.27
2019-02-22T03:15:57.370Z,43.82
2019-02-22T03:18:28.120Z,44.22
2019-02-22T03:20:58.963Z,44.39
2019-02-22T03:23:29.630Z,44.66
2019-02-22T03:26:00.289Z,44.51
2019-02-22T03:28:30.934Z,43.85
2019-02-22T03:31:01.791Z,44.23
2019-02-22T03:33:32.445Z,44.71
2019-02-22T03:36:03.196Z,44.09
2019-02-22T03:38:33.848Z,44.41
2019-02-22T03:41:04.685Z,44.18
2019-02-22T03:43:35.455Z,44.55
2019-02-22T03:46:06.210Z,44.94
2019-02-22T03:48:36.861Z,44.90
2019-02-22T03:51:07.700Z,45.46
2019-02-22T03:53:41.133Z,44.27
2019-02-22T03:56:12.087Z,44.33
2019-02-22T03:58:42.851Z,44.88
2019-02-22T04:01:13.701Z,44.66
2019-02-22T04:03:44.559Z,45.00
2019-02-22T04:06:15.292Z,44.66
2019-02-22T04:08:45.961Z,44.61
2019-02-22T04:11:16.817Z,45.15
2019-02-22T04:13:47.573Z,44.57
2019-02-22T04:16:18.323Z,44.84
2019-02-22T04:18:49.082Z,45.10
2019-02-22T04:21:19.916Z,44.63
2019-02-22T04:23:50.588Z,45.12
2019-02-22T04:26:21.224Z,45.20
2019-02-22T04:28:53.506Z,44.77
2019-02-22T04:31:24.379Z,45.44
2019-02-22T04:33:55.135Z,45.42
2019-02-22T04:36:25.772Z,45.16
2019-02-22T04:38:56.541Z,45.78
2019-02-22T04:41:27.312Z,45.48
2019-02-22T04:43:57.946Z,46.01
2019-02-22T04:46:28.630Z,45.84
2019-02-22T04:48:59.232Z,45.48
2019-02-22T04:51:29.885Z,46.03
2019-02-22T04:54:01.683Z,45.89
2019-02-22T04:56:32.618Z,46.01
2019-02-22T04:59:03.397Z,45.87
2019-02-22T05:01:34.142Z,46.08
2019-02-22T05:04:03.901Z,46.49
2019-02-22T05:06:34.426Z,46.74
2019-02-22T05:09:05.545Z,47.12
2019-02-22T05:11:35.933Z,47.07
2019-02-22T05:14:06.773Z,46.81
2019-02-22T05:16:37.424Z,46.44
2019-02-22T05:19:08.191Z,47.22
2019-02-22T05:21:38.725Z,47.21
2019-02-22T05:24:09.596Z,47.69
2019-02-22T05:26:40.435Z,47.33
2019-02-22T05:29:11.188Z,47.65
2019-02-22T05:31:41.866Z,46.70
2019-02-22T05:34:12.512Z,46.52
2019-02-22T05:36:44.250Z,45.94
2019-02-22T05:39:19.103Z,45.90
2019-02-22T05:41:47.110Z,46.45
2019-02-22T05:44:17.985Z,46.51
2019-02-22T05:46:59.697Z,46.67
2019-02-22T05:49:22.366Z,46.81
2019-02-22T05:51:52.988Z,46.53
2019-02-22T05:54:24.901Z,46.06
2019-02-22T05:56:55.946Z,46.16
2019-02-22T05:59:26.712Z,45.90
2019-02-22T06:01:57.454Z,45.59
2019-02-22T06:04:28.310Z,45.65
2019-02-22T06:06:59.047Z,45.72
2019-02-22T06:09:29.814Z,45.13
2019-02-22T06:12:00.469Z,44.75
2019-02-22T06:14:31.334Z,44.76
2019-02-22T06:17:13.953Z,44.36
2019-02-22T06:19:34.570Z,44.07
2019-02-22T06:22:05.224Z,43.91
2019-02-22T06:24:36.078Z,43.37
2019-02-22T06:27:06.729Z,43.17
2019-02-22T06:29:39.216Z,43.00
2019-02-22T06:32:09.865Z,42.79
2019-02-22T06:34:40.837Z,43.24
2019-02-22T06:37:11.589Z,42.73
2019-02-22T06:39:42.237Z,43.92
2019-02-22T06:42:12.991Z,42.28
2019-02-22T06:44:43.949Z,42.84
2019-02-22T06:47:13.596Z,41.96
2019-02-22T06:49:44.599Z,41.07
2019-02-22T06:52:15.494Z,41.60
2019-02-22T06:54:47.048Z,41.57
2019-02-22T06:57:23.967Z,41.23
2019-02-22T06:59:54.609Z,41.87
2019-02-22T07:02:26.590Z,41.50
2019-02-22T07:05:07.877Z,41.42
2019-02-22T07:07:38.734Z,41.41
2019-02-22T07:10:10.782Z,41.30
2019-02-22T07:12:42.782Z,41.53
2019-02-22T07:15:13.331Z,41.70
2019-02-22T07:17:43.315Z,41.68
2019-02-22T07:20:13.714Z,41.36
2019-02-22T07:22:44.467Z,42.06
2019-02-22T07:25:15.019Z,41.91
2019-02-22T07:27:45.891Z,42.51
2019-02-22T07:30:16.645Z,42.43
2019-02-22T07:32:47.436Z,42.65
2019-02-22T07:35:18.154Z,42.95
2019-02-22T07:37:49.008Z,42.91
2019-02-22T07:40:20.135Z,43.28
2019-02-22T07:42:50.821Z,43.45
2019-02-22T07:45:21.679Z,43.79
2019-02-22T07:47:52.433Z,43.87
2019-02-22T07:50:23.082Z,43.47
2019-02-22T07:52:53.939Z,43.55
2019-02-22T07:55:25.699Z,43.05
2019-02-22T07:57:56.689Z,43.84
2019-02-22T08:00:28.658Z,43.76
2019-02-22T08:02:59.408Z,43.73
2019-02-22T08:05:30.265Z,43.18
2019-02-22T08:08:01.123Z,42.90
2019-02-22T08:10:31.878Z,42.28
2019-02-22T08:13:02.526Z,42.50
2019-02-22T08:15:35.418Z,42.74
2019-02-22T08:18:05.772Z,41.96
2019-02-22T08:20:36.534Z,41.45
2019-02-22T08:23:07.183Z,41.70
2019-02-22T08:25:38.034Z,40.51
2019-02-22T08:28:08.792Z,40.88
2019-02-22T08:30:39.647Z,41.76
2019-02-22T08:33:10.499Z,40.51
2019-02-22T08:35:41.357Z,40.83
2019-02-22T08:38:12.097Z,40.36
2019-02-22T08:40:42.968Z,40.33
2019-02-22T08:43:13.822Z,41.38
2019-02-22T08:45:44.577Z,41.40
2019-02-22T08:48:15.310Z,41.49
2019-02-22T08:50:46.290Z,40.74
2019-02-22T08:53:17.025Z,40.85
2019-02-22T08:55:47.796Z,41.57
2019-02-22T08:58:18.857Z,41.12
2019-02-22T09:00:49.612Z,41.10
2019-02-22T09:03:20.243Z,40.50
2019-02-22T09:05:50.999Z,41.00
2019-02-22T09:08:21.871Z,40.83
2019-02-22T09:11:00.482Z,41.03
2019-02-22T09:13:25.018Z,41.52
2019-02-22T09:15:55.752Z,40.81
2019-02-22T09:18:26.524Z,40.42
2019-02-22T09:20:57.159Z,41.28
2019-02-22T09:23:27.149Z,40.31
2019-02-22T09:25:57.660Z,39.61
2019-02-22T09:28:28.311Z,39.82
2019-02-22T09:30:59.048Z,40.00
2019-02-22T09:33:29.924Z,40.08
2019-02-22T09:36:00.574Z,40.26
2019-02-22T09:38:30.526Z,39.55
2019-02-22T09:41:00.940Z,39.39
2019-02-22T09:43:31.019Z,39.52
2019-02-22T09:46:01.423Z,39.53
2019-02-22T09:48:31.606Z,40.11
2019-02-22T09:51:02.131Z,39.46
2019-02-22T09:53:32.890Z,39.28
2019-02-22T09:56:04.540Z,39.03
2019-02-22T09:58:35.396Z,39.35
2019-02-22T10:01:06.066Z,39.85
2019-02-22T10:03:36.803Z,39.09
2019-02-22T10:06:07.577Z,39.33
2019-02-22T10:08:38.208Z,39.43
2019-02-22T10:11:08.186Z,38.85
2019-02-22T10:13:38.710Z,38.56
2019-02-22T10:16:09.364Z,38.68
2019-02-22T10:18:39.424Z,39.43
2019-02-22T10:21:09.953Z,39.13
2019-02-22T10:23:40.012Z,38.61
2019-02-22T10:26:10.415Z,38.46
2019-02-22T10:28:40.487Z,38.51
2019-02-22T10:31:10.910Z,38.22
2019-02-22T10:33:41.084Z,38.17
2019-02-22T10:36:11.609Z,38.50
2019-02-22T10:38:42.362Z,37.55
2019-02-22T10:41:12.998Z,37.83
2019-02-22T10:43:43.076Z,38.95
2019-02-22T10:46:13.602Z,38.82
2019-02-22T10:48:43.553Z,38.80
2019-02-22T10:51:14.149Z,38.96
2019-02-22T10:53:44.927Z,39.07
2019-02-22T10:56:16.514Z,38.87
2019-02-22T10:58:47.031Z,38.80
2019-02-22T11:01:17.592Z,38.66
2019-02-22T11:03:48.468Z,39.25
2019-02-22T11:06:19.206Z,38.88
2019-02-22T11:08:49.958Z,39.37
2019-02-22T11:11:20.626Z,38.97
2019-02-22T11:13:50.587Z,39.47
2019-02-22T11:16:21.094Z,40.44
2019-02-22T11:18:51.850Z,41.65
2019-02-22T11:21:21.612Z,42.90
2019-02-22T11:23:52.143Z,42.08
2019-02-22T11:26:22.782Z,40.55
2019-02-22T11:28:52.860Z,40.82
2019-02-22T11:31:23.368Z,42.51
2019-02-22T11:33:53.917Z,41.96
2019-02-22T11:36:24.672Z,41.33
2019-02-22T11:38:55.545Z,40.79
2019-02-22T11:41:26.300Z,43.10
2019-02-22T11:43:56.947Z,42.05
2019-02-22T11:46:27.808Z,41.97
2019-02-22T11:48:58.438Z,40.98
2019-02-22T11:51:29.209Z,41.43
2019-02-22T11:53:59.842Z,41.58
2019-02-22T11:56:31.638Z,41.10
2019-02-22T11:59:02.800Z,41.76
2019-02-22T12:01:33.434Z,41.57
2019-02-22T12:04:04.206Z,41.65
2019-02-22T12:06:34.857Z,43.63
2019-02-22T12:09:05.699Z,43.70
2019-02-22T12:11:36.348Z,42.12
2019-02-22T12:14:07.124Z,41.62
2019-02-22T12:16:37.770Z,41.37
2019-02-22T12:19:08.628Z,41.70
2019-02-22T12:21:39.277Z,41.80
2019-02-22T12:24:10.032Z,41.63
2019-02-22T12:26:40.689Z,41.06
2019-02-22T12:29:11.543Z,41.58
2019-02-22T12:31:42.178Z,42.32
2019-02-22T12:34:12.930Z,42.51
2019-02-22T12:36:43.598Z,43.11
2019-02-22T12:39:14.444Z,42.93
2019-02-22T12:41:45.087Z,43.24
2019-02-22T12:44:15.841Z,43.57
2019-02-22T12:46:46.509Z,44.59
2019-02-22T12:49:17.347Z,43.23
2019-02-22T12:51:48.119Z,43.49
2019-02-22T12:54:18.861Z,43.53
2019-02-22T12:56:57.578Z,43.86
2019-02-22T12:59:23.141Z,44.50
2019-02-22T13:01:53.999Z,44.34
2019-02-22T13:04:24.751Z,43.14
2019-02-22T13:06:55.405Z,44.31
2019-02-22T13:09:36.434Z,44.78
2019-02-22T13:11:58.343Z,44.53
2019-02-22T13:14:29.099Z,44.73
2019-02-22T13:16:59.730Z,45.47
2019-02-22T13:19:30.605Z,45.28
2019-02-22T13:22:01.462Z,45.05
2019-02-22T13:24:32.198Z,45.07
2019-02-22T13:27:02.749Z,45.53
2019-02-22T13:29:33.604Z,46.12
2019-02-22T13:32:04.254Z,45.73
2019-02-22T13:34:35.010Z,45.98
2019-02-22T13:37:05.558Z,46.22
2019-02-22T13:39:35.638Z,46.55
2019-02-22T13:42:06.160Z,46.69
2019-02-22T13:44:36.692Z,47.27
2019-02-22T13:47:07.572Z,47.42
2019-02-22T13:49:38.302Z,47.82
2019-02-22T13:52:09.058Z,47.44
2019-02-22T13:54:39.607Z,47.73
2019-02-22T13:57:11.283Z,48.20
2019-02-22T13:59:41.849Z,48.73
2019-02-22T14:02:12.585Z,48.43
2019-02-22T14:04:43.347Z,49.11
2019-02-22T14:07:14.109Z,48.52
2019-02-22T14:09:44.742Z,49.08
2019-02-22T14:12:15.599Z,49.38
2019-02-22T14:14:46.370Z,49.82
2019-02-22T14:17:17.106Z,50.11
2019-02-22T14:19:47.654Z,50.12
2019-02-22T14:22:17.735Z,50.57
2019-02-22T14:24:48.244Z,50.49
2019-02-22T14:27:18.894Z,50.63
2019-02-22T14:29:49.752Z,50.69
2019-02-22T14:32:20.400Z,50.75
2019-02-22T14:34:51.172Z,50.54
2019-02-22T14:37:21.886Z,50.02
2019-02-22T14:40:02.369Z,49.30
2019-02-22T14:42:25.276Z,49.46
2019-02-22T14:44:55.909Z,49.55
2019-02-22T14:47:26.664Z,48.38
2019-02-22T14:49:57.540Z,48.06
2019-02-22T14:52:28.171Z,48.12
2019-02-22T14:54:58.842Z,47.50
2019-02-22T14:57:30.614Z,47.33
2019-02-22T15:00:01.560Z,47.05
2019-02-22T15:02:32.207Z,46.86
2019-02-22T15:05:02.980Z,46.25
2019-02-22T15:07:33.618Z,45.63
2019-02-22T15:10:06.054Z,45.58
2019-02-22T15:12:36.469Z,46.17
2019-02-22T15:15:17.658Z,45.15
2019-02-22T15:17:49.618Z,45.26
2019-02-22T15:20:20.372Z,46.05
2019-02-22T15:22:51.023Z,45.77
2019-02-22T15:25:21.676Z,45.77
2019-02-22T15:27:52.427Z,45.89
2019-02-22T15:30:23.417Z,45.41
2019-02-22T15:32:54.163Z,45.87
2019-02-22T15:35:25.014Z,45.88
2019-02-22T15:37:55.751Z,45.69
2019-02-22T15:40:26.503Z,45.10
2019-02-22T15:42:57.185Z,45.36
2019-02-22T15:45:28.034Z,45.16
2019-02-22T15:47:58.801Z,45.64
2019-02-22T15:50:29.520Z,46.55
2019-02-22T15:53:00.187Z,47.56
2019-02-22T15:55:31.027Z,47.82
2019-02-22T15:58:02.717Z,48.42
2019-02-22T16:00:35.082Z,48.43
2019-02-22T16:03:05.437Z,48.40
2019-02-22T16:05:37.748Z,47.86
2019-02-22T16:08:08.375Z,47.89
2019-02-22T16:10:39.173Z,47.54
2019-02-22T16:13:09.903Z,48.12
2019-02-22T16:15:40.866Z,47.93
2019-02-22T16:18:11.511Z,48.29
2019-02-22T16:20:42.366Z,49.24
2019-02-22T16:23:13.001Z,49.89
2019-02-22T16:25:43.669Z,49.59
2019-02-22T16:28:15.844Z,49.64
2019-02-22T16:30:46.388Z,50.17
2019-02-22T16:33:17.142Z,50.82
2019-02-22T16:35:49.025Z,51.32
2019-02-22T16:38:19.797Z,51.32
2019-02-22T16:40:50.544Z,50.97
2019-02-22T16:43:21.401Z,50.54
2019-02-22T16:45:52.258Z,50.09
2019-02-22T16:48:22.897Z,49.59
2019-02-22T16:50:53.545Z,50.47
2019-02-22T16:53:24.298Z,50.47
2019-02-22T16:55:55.170Z,49.96
2019-02-22T16:58:27.545Z,49.41
2019-02-22T17:00:58.521Z,49.38
2019-02-22T17:03:29.153Z,49.12
2019-02-22T17:05:59.930Z,49.12
2019-02-22T17:08:30.575Z,48.45
2019-02-22T17:11:00.537Z,48.97
2019-02-22T17:13:31.063Z,48.87
2019-02-22T17:16:01.802Z,48.92
2019-02-22T17:18:32.350Z,49.05
2019-02-22T17:21:03.206Z,49.78
2019-02-22T17:23:33.973Z,50.36
2019-02-22T17:26:05.295Z,50.67
2019-02-22T17:28:35.976Z,50.58
2019-02-22T17:31:06.729Z,48.56
2019-02-22T17:33:37.501Z,48.74
2019-02-22T17:36:08.339Z,48.86
2019-02-22T17:38:39.092Z,49.04
2019-02-22T17:41:09.845Z,49.04
2019-02-22T17:43:40.396Z,48.99
2019-02-22T17:46:11.900Z,48.91
2019-02-22T17:48:42.311Z,49.23
2019-02-22T17:51:13.085Z,49.07
2019-02-22T17:53:43.940Z,49.42
2019-02-22T17:56:14.797Z,49.11
2019-02-22T17:58:46.470Z,47.94
2019-02-22T18:01:17.326Z,47.33
2019-02-22T18:03:47.964Z,47.40
2019-02-22T18:06:18.849Z,47.40
2019-02-22T18:08:49.484Z,47.76
2019-02-22T18:11:20.240Z,47.95
2019-02-22T18:13:50.888Z,47.28
2019-02-22T18:16:21.747Z,47.22
2019-02-22T18:18:52.480Z,46.56
2019-02-22T18:21:23.252Z,46.73
2019-02-22T18:23:53.905Z,46.57
2019-02-22T18:26:26.296Z,46.94
2019-02-22T18:28:56.928Z,47.38
2019-02-22T18:31:27.702Z,47.38
2019-02-22T18:33:58.353Z,47.31
2019-02-22T18:36:29.195Z,47.87
2019-02-22T18:38:59.962Z,48.49
2019-02-22T18:41:30.718Z,49.44
2019-02-22T18:44:01.368Z,49.89
2019-02-22T18:46:32.207Z,50.41
2019-02-22T18:49:02.857Z,50.71
2019-02-22T18:51:33.630Z,50.39
2019-02-22T18:54:16.127Z,48.87
2019-02-22T18:59:35.855Z,47.51
2019-02-22T19:02:06.900Z,47.49
2019-02-22T19:04:37.670Z,48.64
2019-02-22T19:07:08.323Z,48.59
2019-02-22T19:09:39.161Z,47.94
2019-02-22T19:12:09.814Z,45.65
2019-02-22T19:14:40.568Z,45.63
2019-02-22T19:17:11.319Z,45.03
2019-02-22T19:19:42.200Z,44.43
2019-02-22T19:22:12.828Z,44.36
2019-02-22T19:24:43.600Z,44.11
2019-02-22T19:27:14.130Z,44.58
2019-02-22T19:29:44.991Z,44.27
2019-02-22T19:32:15.643Z,44.37
2019-02-22T19:34:46.392Z,43.33
2019-02-22T19:37:16.754Z,42.77
2019-02-22T19:39:47.525Z,43.26
2019-02-22T19:42:18.158Z,43.08
2019-02-22T19:44:50.548Z,43.85
2019-02-22T19:47:22.848Z,43.96
2019-02-22T19:49:53.369Z,44.29
2019-02-22T19:52:24.240Z,44.67
2019-02-22T19:54:54.997Z,45.11
2019-02-22T19:57:25.630Z,45.52
2019-02-22T19:59:56.622Z,45.74
2019-02-22T20:02:27.035Z,46.41
2019-02-22T20:04:57.807Z,47.00
2019-02-22T20:07:28.474Z,47.00
2019-02-22T20:09:58.411Z,46.97
2019-02-22T20:12:29.296Z,47.02
2019-02-22T20:15:00.005Z,47.21
2019-02-22T20:17:30.758Z,47.32
2019-02-22T20:20:01.515Z,47.56
2019-02-22T20:22:32.672Z,47.96
2019-02-22T20:25:05.903Z,48.25
2019-02-22T20:27:36.227Z,47.95
2019-02-22T20:30:10.134Z,48.34
2019-02-22T20:32:40.580Z,49.06
2019-02-22T20:35:13.801Z,49.12
2019-02-22T20:37:51.953Z,49.29
2019-02-22T20:40:16.218Z,49.16
2019-02-22T20:42:47.143Z,49.63
2019-02-22T20:45:17.948Z,49.74
2019-02-22T20:47:50.162Z,49.90
2019-02-22T20:50:21.013Z,49.92
2019-02-22T20:52:52.424Z,49.77
2019-02-22T20:55:24.062Z,49.92
2019-02-22T20:57:55.074Z,49.56
2019-02-22T21:00:30.380Z,49.84
2019-02-22T21:03:00.895Z,50.04
2019-02-22T21:05:31.633Z,49.90
2019-02-22T21:08:02.178Z,50.07
2019-02-22T21:10:33.052Z,50.03
2019-02-22T21:13:03.891Z,50.73
2019-02-22T21:15:34.337Z,50.88
2019-02-22T21:18:15.634Z,50.72
2019-02-22T21:20:37.192Z,51.26
2019-02-22T21:23:07.982Z,51.34
2019-02-22T21:25:38.393Z,51.65
2019-02-22T21:28:09.031Z,51.92
2019-02-22T21:30:39.800Z,52.04
2019-02-22T21:33:10.449Z,51.89
2019-02-22T21:35:41.311Z,51.60
2019-02-22T21:38:11.956Z,51.88
2019-02-22T21:40:42.713Z,51.74
2019-02-22T21:43:13.242Z,51.69
2019-02-22T21:45:44.116Z,51.77
2019-02-22T21:48:14.973Z,52.73
2019-02-22T21:50:45.709Z,52.99
2019-02-22T21:53:16.378Z,53.27
2019-02-22T21:55:47.218Z,54.00
2019-02-22T21:58:17.866Z,54.67
2019-02-22T22:00:49.541Z,54.68
2019-02-22T22:03:20.416Z,54.88
2019-02-22T22:05:51.049Z,55.29
2019-02-22T22:08:21.923Z,55.67
2019-02-22T22:10:52.780Z,55.82
2019-02-22T22:13:23.534Z,55.90
2019-02-22T22:15:54.168Z,56.39
2019-02-22T22:18:24.936Z,56.61
2019-02-22T22:20:55.675Z,56.78
2019-02-22T22:23:26.445Z,56.72
2019-02-22T22:25:57.097Z,56.82
2019-02-22T22:28:27.835Z,57.11
2019-02-22T22:30:58.612Z,57.17
2019-02-22T22:33:29.242Z,57.25
2019-02-22T22:35:59.909Z,57.30
2019-02-22T22:38:30.766Z,57.63
2019-02-22T22:41:01.608Z,57.31
2019-02-22T22:43:32.374Z,57.86
2019-02-22T22:46:03.028Z,57.71
2019-02-22T22:48:33.761Z,57.04
2019-02-22T22:51:04.634Z,56.86
2019-02-22T22:53:35.272Z,57.18
2019-02-22T22:56:05.937Z,58.08
2019-02-22T22:58:36.674Z,58.29
2019-02-22T23:01:09.933Z,58.52
2019-02-22T23:03:40.450Z,58.48
2019-02-22T23:06:11.305Z,58.95
2019-02-22T23:08:41.939Z,59.25
2019-02-22T23:11:12.608Z,59.43
2019-02-22T23:13:43.465Z,59.82
2019-02-22T23:16:14.204Z,60.04
2019-02-22T23:18:44.854Z,60.13
2019-02-22T23:21:15.520Z,59.71
2019-02-22T23:23:46.379Z,60.19
2019-02-22T23:26:17.130Z,60.33
2019-02-22T23:28:47.887Z,60.03
2019-02-22T23:31:18.537Z,60.28
2019-02-22T23:33:49.392Z,59.53
2019-02-22T23:36:20.129Z,59.94
2019-02-22T23:38:50.797Z,59.50
2019-02-22T23:41:20.861Z,59.44
2019-02-22T23:43:51.387Z,59.76
2019-02-22T23:46:22.035Z,59.56
2019-02-22T23:48:52.890Z,59.44
2019-02-22T23:51:23.752Z,59.67
2019-02-22T23:53:54.503Z,60.07
2019-02-22T23:56:25.052Z,59.83
2019-02-22T23:58:55.907Z,60.18
